sensor_id;sensor_type;location;lat;lon;timestamp;temperature;humidity
64796;DHT22;51229;51.980;6.722;2023-02-28T00:00:50;-0.80;99.90
64796;DHT22;51229;51.980;6.722;2023-02-28T00:03:16;-0.80;99.90
64796;DHT22;51229;51.980;6.722;2023-02-28T00:05:41;-0.90;99.90
64796;DHT22;51229;51.980;6.722;2023-02-28T00:08:08;-1.10;99.90
64796;DHT22;51229;51.980;6.722;2023-02-28T00:10:34;-1.00;99.90
64796;DHT22;51229;51.980;6.722;2023-02-28T00:13:03;-1.00;99.90
64796;DHT22;51229;51.980;6.722;2023-02-28T00:15:29;-1.10;99.90
64796;DHT22;51229;51.980;6.722;2023-02-28T00:17:55;-1.10;99.90
64796;DHT22;51229;51.980;6.722;2023-02-28T00:20:21;-1.00;99.90
64796;DHT22;51229;51.980;6.722;2023-02-28T00:22:49;-1.00;99.90
64796;DHT22;51229;51.980;6.722;2023-02-28T00:25:17;-1.10;99.90
64796;DHT22;51229;51.980;6.722;2023-02-28T00:27:43;-1.20;99.90
64796;DHT22;51229;51.980;6.722;2023-02-28T00:30:14;-1.10;99.90
64796;DHT22;51229;51.980;6.722;2023-02-28T00:32:41;-1.20;99.90
64796;DHT22;51229;51.980;6.722;2023-02-28T00:35:07;-1.30;99.90
64796;DHT22;51229;51.980;6.722;2023-02-28T00:37:33;-1.30;99.90
64796;DHT22;51229;51.980;6.722;2023-02-28T00:39:59;-1.60;99.90
64796;DHT22;51229;51.980;6.722;2023-02-28T00:42:26;-1.60;99.90
64796;DHT22;51229;51.980;6.722;2023-02-28T00:44:52;-1.50;99.90
64796;DHT22;51229;51.980;6.722;2023-02-28T00:47:18;-1.40;99.90
64796;DHT22;51229;51.980;6.722;2023-02-28T00:49:43;-1.60;99.90
64796;DHT22;51229;51.980;6.722;2023-02-28T00:52:09;-1.40;99.90
64796;DHT22;51229;51.980;6.722;2023-02-28T00:54:35;-1.30;99.90
64796;DHT22;51229;51.980;6.722;2023-02-28T00:57:01;-1.20;99.90
64796;DHT22;51229;51.980;6.722;2023-02-28T00:59:26;-1.10;99.90
64796;DHT22;51229;51.980;6.722;2023-02-28T01:01:52;-1.20;99.90
64796;DHT22;51229;51.980;6.722;2023-02-28T01:04:18;-1.20;99.90
64796;DHT22;51229;51.980;6.722;2023-02-28T01:06:44;-1.40;99.90
64796;DHT22;51229;51.980;6.722;2023-02-28T01:09:10;-1.40;99.90
64796;DHT22;51229;51.980;6.722;2023-02-28T01:11:37;-1.40;99.90
64796;DHT22;51229;51.980;6.722;2023-02-28T01:14:02;-1.30;99.90
64796;DHT22;51229;51.980;6.722;2023-02-28T01:16:30;-1.20;99.90
64796;DHT22;51229;51.980;6.722;2023-02-28T01:18:56;-1.30;99.90
64796;DHT22;51229;51.980;6.722;2023-02-28T01:21:23;-1.20;99.90
64796;DHT22;51229;51.980;6.722;2023-02-28T01:23:49;-1.40;99.90
64796;DHT22;51229;51.980;6.722;2023-02-28T01:26:18;-1.70;99.90
64796;DHT22;51229;51.980;6.722;2023-02-28T01:28:43;-1.80;99.90
64796;DHT22;51229;51.980;6.722;2023-02-28T01:31:10;-1.60;99.90
64796;DHT22;51229;51.980;6.722;2023-02-28T01:33:37;-1.50;99.90
64796;DHT22;51229;51.980;6.722;2023-02-28T01:36:13;-1.40;99.90
64796;DHT22;51229;51.980;6.722;2023-02-28T01:38:39;-1.30;99.90
64796;DHT22;51229;51.980;6.722;2023-02-28T01:41:06;-1.30;99.90
64796;DHT22;51229;51.980;6.722;2023-02-28T01:44:02;-1.30;99.90
64796;DHT22;51229;51.980;6.722;2023-02-28T01:46:32;-1.40;99.90
64796;DHT22;51229;51.980;6.722;2023-02-28T01:49:09;-1.60;99.90
64796;DHT22;51229;51.980;6.722;2023-02-28T01:54:21;-1.60;99.90
64796;DHT22;51229;51.980;6.722;2023-02-28T01:56:57;-1.60;99.90
64796;DHT22;51229;51.980;6.722;2023-02-28T01:59:36;-1.70;99.90
64796;DHT22;51229;51.980;6.722;2023-02-28T02:02:04;-1.80;99.90
64796;DHT22;51229;51.980;6.722;2023-02-28T02:04:39;-1.80;99.90
64796;DHT22;51229;51.980;6.722;2023-02-28T02:07:05;-1.70;99.90
64796;DHT22;51229;51.980;6.722;2023-02-28T02:09:31;-1.70;99.90
64796;DHT22;51229;51.980;6.722;2023-02-28T02:11:57;-1.60;99.90
64796;DHT22;51229;51.980;6.722;2023-02-28T02:14:44;-1.40;99.90
64796;DHT22;51229;51.980;6.722;2023-02-28T02:17:30;-1.40;99.90
64796;DHT22;51229;51.980;6.722;2023-02-28T02:25:52;-1.40;99.90
64796;DHT22;51229;51.980;6.722;2023-02-28T02:28:36;-1.40;99.90
64796;DHT22;51229;51.980;6.722;2023-02-28T02:31:39;-1.40;99.90
64796;DHT22;51229;51.980;6.722;2023-02-28T02:34:27;-1.40;99.90
64796;DHT22;51229;51.980;6.722;2023-02-28T02:39:53;-1.40;99.90
64796;DHT22;51229;51.980;6.722;2023-02-28T02:45:07;-1.40;99.90
64796;DHT22;51229;51.980;6.722;2023-02-28T02:47:35;-1.40;99.90
64796;DHT22;51229;51.980;6.722;2023-02-28T02:50:06;-1.40;99.90
64796;DHT22;51229;51.980;6.722;2023-02-28T02:52:38;-1.40;99.90
64796;DHT22;51229;51.980;6.722;2023-02-28T02:55:06;-1.40;99.90
64796;DHT22;51229;51.980;6.722;2023-02-28T02:57:53;-1.40;99.90
64796;DHT22;51229;51.980;6.722;2023-02-28T03:00:24;-1.40;99.90
64796;DHT22;51229;51.980;6.722;2023-02-28T03:02:52;-1.40;99.90
64796;DHT22;51229;51.980;6.722;2023-02-28T03:05:34;-1.40;99.90
64796;DHT22;51229;51.980;6.722;2023-02-28T03:08:03;-1.40;99.90
64796;DHT22;51229;51.980;6.722;2023-02-28T03:10:37;-1.40;99.90
64796;DHT22;51229;51.980;6.722;2023-02-28T03:13:26;-1.50;99.90
64796;DHT22;51229;51.980;6.722;2023-02-28T03:16:22;-1.50;99.90
64796;DHT22;51229;51.980;6.722;2023-02-28T03:27:29;-1.50;99.90
64796;DHT22;51229;51.980;6.722;2023-02-28T03:30:05;-1.50;99.90
64796;DHT22;51229;51.980;6.722;2023-02-28T03:32:56;-1.50;99.90
64796;DHT22;51229;51.980;6.722;2023-02-28T03:35:27;-1.50;99.90
64796;DHT22;51229;51.980;6.722;2023-02-28T03:38:00;-1.50;99.90
64796;DHT22;51229;51.980;6.722;2023-02-28T03:40:30;-1.50;99.90
64796;DHT22;51229;51.980;6.722;2023-02-28T03:43:01;-1.60;99.90
64796;DHT22;51229;51.980;6.722;2023-02-28T03:45:30;-1.60;99.90
64796;DHT22;51229;51.980;6.722;2023-02-28T03:48:13;-1.80;99.90
64796;DHT22;51229;51.980;6.722;2023-02-28T03:50:43;-2.00;99.90
64796;DHT22;51229;51.980;6.722;2023-02-28T03:53:27;-2.30;99.90
64796;DHT22;51229;51.980;6.722;2023-02-28T03:56:03;-2.20;99.90
64796;DHT22;51229;51.980;6.722;2023-02-28T04:01:40;-2.10;99.90
64796;DHT22;51229;51.980;6.722;2023-02-28T04:04:08;-1.90;99.90
64796;DHT22;51229;51.980;6.722;2023-02-28T04:06:34;-2.10;99.90
64796;DHT22;51229;51.980;6.722;2023-02-28T04:09:01;-2.20;99.90
64796;DHT22;51229;51.980;6.722;2023-02-28T04:11:44;-2.40;99.90
64796;DHT22;51229;51.980;6.722;2023-02-28T04:14:11;-2.50;99.90
64796;DHT22;51229;51.980;6.722;2023-02-28T04:16:39;-2.40;99.90
64796;DHT22;51229;51.980;6.722;2023-02-28T04:19:06;-2.40;99.90
64796;DHT22;51229;51.980;6.722;2023-02-28T04:21:41;-2.50;99.90
64796;DHT22;51229;51.980;6.722;2023-02-28T04:24:12;-2.30;99.90
64796;DHT22;51229;51.980;6.722;2023-02-28T04:26:44;-2.50;99.90
64796;DHT22;51229;51.980;6.722;2023-02-28T04:29:12;-2.50;99.90
64796;DHT22;51229;51.980;6.722;2023-02-28T04:31:39;-2.30;99.90
64796;DHT22;51229;51.980;6.722;2023-02-28T04:34:05;-2.30;99.90
64796;DHT22;51229;51.980;6.722;2023-02-28T04:36:31;-2.20;99.90
64796;DHT22;51229;51.980;6.722;2023-02-28T04:38:57;-2.10;99.90
64796;DHT22;51229;51.980;6.722;2023-02-28T04:41:23;-2.20;99.90
64796;DHT22;51229;51.980;6.722;2023-02-28T04:43:50;-2.30;99.90
64796;DHT22;51229;51.980;6.722;2023-02-28T04:46:16;-2.40;99.90
64796;DHT22;51229;51.980;6.722;2023-02-28T04:48:43;-2.20;99.90
64796;DHT22;51229;51.980;6.722;2023-02-28T04:51:11;-2.20;99.90
64796;DHT22;51229;51.980;6.722;2023-02-28T04:53:38;-2.20;99.90
64796;DHT22;51229;51.980;6.722;2023-02-28T04:56:05;-2.10;99.90
64796;DHT22;51229;51.980;6.722;2023-02-28T04:58:31;-2.10;99.90
64796;DHT22;51229;51.980;6.722;2023-02-28T05:01:27;-2.30;99.90
64796;DHT22;51229;51.980;6.722;2023-02-28T05:03:52;-2.30;99.90
64796;DHT22;51229;51.980;6.722;2023-02-28T05:06:20;-2.10;99.90
64796;DHT22;51229;51.980;6.722;2023-02-28T05:08:46;-1.90;99.90
64796;DHT22;51229;51.980;6.722;2023-02-28T05:11:23;-1.80;99.90
64796;DHT22;51229;51.980;6.722;2023-02-28T05:13:50;-1.80;99.90
64796;DHT22;51229;51.980;6.722;2023-02-28T05:16:17;-1.80;99.90
64796;DHT22;51229;51.980;6.722;2023-02-28T05:18:43;-1.80;99.90
64796;DHT22;51229;51.980;6.722;2023-02-28T05:21:30;-1.90;99.90
64796;DHT22;51229;51.980;6.722;2023-02-28T05:23:59;-2.00;99.90
64796;DHT22;51229;51.980;6.722;2023-02-28T05:26:26;-2.20;99.90
64796;DHT22;51229;51.980;6.722;2023-02-28T05:28:53;-2.30;99.90
64796;DHT22;51229;51.980;6.722;2023-02-28T05:31:19;-2.30;99.90
64796;DHT22;51229;51.980;6.722;2023-02-28T05:33:44;-2.30;99.90
64796;DHT22;51229;51.980;6.722;2023-02-28T05:36:10;-2.40;99.90
64796;DHT22;51229;51.980;6.722;2023-02-28T05:38:36;-2.60;99.90
64796;DHT22;51229;51.980;6.722;2023-02-28T05:41:10;-2.50;99.90
64796;DHT22;51229;51.980;6.722;2023-02-28T05:43:36;-2.50;99.90
64796;DHT22;51229;51.980;6.722;2023-02-28T05:46:06;-2.40;99.90
64796;DHT22;51229;51.980;6.722;2023-02-28T05:48:33;-2.30;99.90
64796;DHT22;51229;51.980;6.722;2023-02-28T05:50:59;-2.20;99.90
64796;DHT22;51229;51.980;6.722;2023-02-28T05:53:25;-2.40;99.90
64796;DHT22;51229;51.980;6.722;2023-02-28T05:55:51;-2.40;99.90
64796;DHT22;51229;51.980;6.722;2023-02-28T05:58:17;-2.30;99.90
64796;DHT22;51229;51.980;6.722;2023-02-28T06:00:44;-2.30;99.90
64796;DHT22;51229;51.980;6.722;2023-02-28T06:03:09;-2.60;99.90
64796;DHT22;51229;51.980;6.722;2023-02-28T06:05:35;-2.40;99.90
64796;DHT22;51229;51.980;6.722;2023-02-28T06:08:01;-2.40;99.90
64796;DHT22;51229;51.980;6.722;2023-02-28T06:10:26;-2.40;99.90
64796;DHT22;51229;51.980;6.722;2023-02-28T06:12:52;-2.60;99.90
64796;DHT22;51229;51.980;6.722;2023-02-28T06:15:18;-2.80;99.90
64796;DHT22;51229;51.980;6.722;2023-02-28T06:17:44;-2.90;99.90
64796;DHT22;51229;51.980;6.722;2023-02-28T06:20:11;-2.90;99.90
64796;DHT22;51229;51.980;6.722;2023-02-28T06:22:38;-3.00;99.90
64796;DHT22;51229;51.980;6.722;2023-02-28T06:25:05;-3.00;99.90
64796;DHT22;51229;51.980;6.722;2023-02-28T06:27:32;-3.10;99.90
64796;DHT22;51229;51.980;6.722;2023-02-28T06:29:58;-3.10;99.90
64796;DHT22;51229;51.980;6.722;2023-02-28T06:32:24;-3.00;99.90
64796;DHT22;51229;51.980;6.722;2023-02-28T06:34:49;-3.00;99.90
64796;DHT22;51229;51.980;6.722;2023-02-28T06:37:16;-2.90;99.90
64796;DHT22;51229;51.980;6.722;2023-02-28T06:39:42;-2.80;99.90
64796;DHT22;51229;51.980;6.722;2023-02-28T06:42:08;-2.90;99.90
64796;DHT22;51229;51.980;6.722;2023-02-28T06:45:37;-2.80;99.90
64796;DHT22;51229;51.980;6.722;2023-02-28T06:47:45;-2.90;99.90
64796;DHT22;51229;51.980;6.722;2023-02-28T06:50:12;-3.10;99.90
64796;DHT22;51229;51.980;6.722;2023-02-28T06:52:38;-3.10;99.90
64796;DHT22;51229;51.980;6.722;2023-02-28T06:55:06;-3.10;99.90
64796;DHT22;51229;51.980;6.722;2023-02-28T06:57:33;-3.10;99.90
64796;DHT22;51229;51.980;6.722;2023-02-28T07:00:04;-3.10;99.90
64796;DHT22;51229;51.980;6.722;2023-02-28T07:02:30;-3.30;99.90
64796;DHT22;51229;51.980;6.722;2023-02-28T07:04:57;-3.20;99.90
64796;DHT22;51229;51.980;6.722;2023-02-28T07:07:22;-3.00;99.90
64796;DHT22;51229;51.980;6.722;2023-02-28T07:09:48;-2.90;99.90
64796;DHT22;51229;51.980;6.722;2023-02-28T07:12:14;-2.70;99.90
64796;DHT22;51229;51.980;6.722;2023-02-28T07:14:39;-2.60;99.90
64796;DHT22;51229;51.980;6.722;2023-02-28T07:17:07;-2.70;99.90
64796;DHT22;51229;51.980;6.722;2023-02-28T07:19:33;-2.80;99.90
64796;DHT22;51229;51.980;6.722;2023-02-28T07:21:58;-2.50;99.90
64796;DHT22;51229;51.980;6.722;2023-02-28T07:24:25;-2.40;99.90
64796;DHT22;51229;51.980;6.722;2023-02-28T07:26:53;-2.40;99.90
64796;DHT22;51229;51.980;6.722;2023-02-28T07:29:19;-2.50;99.90
64796;DHT22;51229;51.980;6.722;2023-02-28T07:31:44;-1.80;99.90
64796;DHT22;51229;51.980;6.722;2023-02-28T07:34:12;-0.90;99.90
64796;DHT22;51229;51.980;6.722;2023-02-28T07:36:38;-0.30;99.90
64796;DHT22;51229;51.980;6.722;2023-02-28T07:39:04;-0.40;99.90
64796;DHT22;51229;51.980;6.722;2023-02-28T07:41:30;-0.10;99.90
64796;DHT22;51229;51.980;6.722;2023-02-28T07:43:59;0.40;99.90
64796;DHT22;51229;51.980;6.722;2023-02-28T07:46:28;0.50;99.90
64796;DHT22;51229;51.980;6.722;2023-02-28T07:48:54;-0.10;99.90
64796;DHT22;51229;51.980;6.722;2023-02-28T07:51:24;-0.40;99.90
64796;DHT22;51229;51.980;6.722;2023-02-28T07:53:50;-0.40;99.90
64796;DHT22;51229;51.980;6.722;2023-02-28T07:56:15;-0.20;99.90
64796;DHT22;51229;51.980;6.722;2023-02-28T07:58:41;-0.20;99.90
64796;DHT22;51229;51.980;6.722;2023-02-28T08:01:09;0.00;99.90
64796;DHT22;51229;51.980;6.722;2023-02-28T08:03:36;0.80;99.90
64796;DHT22;51229;51.980;6.722;2023-02-28T08:06:06;1.20;99.90
64796;DHT22;51229;51.980;6.722;2023-02-28T08:08:32;2.00;99.90
64796;DHT22;51229;51.980;6.722;2023-02-28T08:11:00;2.40;99.90
64796;DHT22;51229;51.980;6.722;2023-02-28T08:13:27;2.60;99.90
64796;DHT22;51229;51.980;6.722;2023-02-28T08:15:53;2.70;99.90
64796;DHT22;51229;51.980;6.722;2023-02-28T08:18:21;3.00;99.90
64796;DHT22;51229;51.980;6.722;2023-02-28T08:20:47;3.50;99.90
64796;DHT22;51229;51.980;6.722;2023-02-28T08:23:13;3.50;99.90
64796;DHT22;51229;51.980;6.722;2023-02-28T08:25:39;3.70;99.90
64796;DHT22;51229;51.980;6.722;2023-02-28T08:28:05;4.40;99.10
64796;DHT22;51229;51.980;6.722;2023-02-28T08:30:30;4.40;98.60
64796;DHT22;51229;51.980;6.722;2023-02-28T08:32:56;4.80;99.90
64796;DHT22;51229;51.980;6.722;2023-02-28T08:35:22;5.00;98.70
64796;DHT22;51229;51.980;6.722;2023-02-28T08:37:51;5.50;96.60
64796;DHT22;51229;51.980;6.722;2023-02-28T08:40:17;5.80;99.90
64796;DHT22;51229;51.980;6.722;2023-02-28T08:42:46;6.00;95.90
64796;DHT22;51229;51.980;6.722;2023-02-28T08:45:12;5.90;90.90
64796;DHT22;51229;51.980;6.722;2023-02-28T08:47:38;6.10;94.90
64796;DHT22;51229;51.980;6.722;2023-02-28T08:50:06;5.70;82.00
64796;DHT22;51229;51.980;6.722;2023-02-28T08:52:31;5.60;86.10
64796;DHT22;51229;51.980;6.722;2023-02-28T08:54:57;6.20;91.10
64796;DHT22;51229;51.980;6.722;2023-02-28T08:57:23;6.50;82.40
64796;DHT22;51229;51.980;6.722;2023-02-28T08:59:51;7.20;76.90
64796;DHT22;51229;51.980;6.722;2023-02-28T09:02:17;7.20;77.00
64796;DHT22;51229;51.980;6.722;2023-02-28T09:04:43;6.80;71.30
64796;DHT22;51229;51.980;6.722;2023-02-28T09:07:11;7.50;90.00
64796;DHT22;51229;51.980;6.722;2023-02-28T09:09:37;7.30;64.10
64796;DHT22;51229;51.980;6.722;2023-02-28T09:12:03;6.60;80.70
64796;DHT22;51229;51.980;6.722;2023-02-28T09:14:29;7.80;76.40
64796;DHT22;51229;51.980;6.722;2023-02-28T09:16:54;7.90;79.30
64796;DHT22;51229;51.980;6.722;2023-02-28T09:19:20;7.90;75.60
64796;DHT22;51229;51.980;6.722;2023-02-28T09:21:46;8.40;72.30
64796;DHT22;51229;51.980;6.722;2023-02-28T09:24:12;8.70;65.80
64796;DHT22;51229;51.980;6.722;2023-02-28T09:26:39;9.00;61.40
64796;DHT22;51229;51.980;6.722;2023-02-28T09:29:05;7.60;70.80
64796;DHT22;51229;51.980;6.722;2023-02-28T09:31:32;7.80;60.20
64796;DHT22;51229;51.980;6.722;2023-02-28T09:33:58;8.60;70.60
64796;DHT22;51229;51.980;6.722;2023-02-28T09:36:26;8.00;65.30
64796;DHT22;51229;51.980;6.722;2023-02-28T09:38:52;7.80;78.70
64796;DHT22;51229;51.980;6.722;2023-02-28T09:41:24;8.60;61.80
64796;DHT22;51229;51.980;6.722;2023-02-28T09:43:59;7.90;59.20
64796;DHT22;51229;51.980;6.722;2023-02-28T09:49:03;8.60;76.60
64796;DHT22;51229;51.980;6.722;2023-02-28T09:51:33;8.10;55.10
64796;DHT22;51229;51.980;6.722;2023-02-28T09:54:01;8.10;75.90
64796;DHT22;51229;51.980;6.722;2023-02-28T09:56:39;8.10;58.70
64796;DHT22;51229;51.980;6.722;2023-02-28T10:02:03;8.80;52.20
64796;DHT22;51229;51.980;6.722;2023-02-28T10:04:52;8.60;68.00
64796;DHT22;51229;51.980;6.722;2023-02-28T10:12:58;8.40;87.60
64796;DHT22;51229;51.980;6.722;2023-02-28T10:15:26;8.70;59.90
64796;DHT22;51229;51.980;6.722;2023-02-28T10:18:21;8.10;67.10
64796;DHT22;51229;51.980;6.722;2023-02-28T10:20:51;9.00;64.90
64796;DHT22;51229;51.980;6.722;2023-02-28T10:23:31;10.50;69.90
64796;DHT22;51229;51.980;6.722;2023-02-28T10:26:15;9.90;77.40
64796;DHT22;51229;51.980;6.722;2023-02-28T10:28:42;10.00;58.50
64796;DHT22;51229;51.980;6.722;2023-02-28T10:31:16;10.20;62.70
64796;DHT22;51229;51.980;6.722;2023-02-28T10:33:43;10.20;73.50
64796;DHT22;51229;51.980;6.722;2023-02-28T10:36:17;10.70;52.40
64796;DHT22;51229;51.980;6.722;2023-02-28T10:38:45;10.80;56.80
64796;DHT22;51229;51.980;6.722;2023-02-28T10:41:32;10.40;87.10
64796;DHT22;51229;51.980;6.722;2023-02-28T10:44:21;9.60;83.60
64796;DHT22;51229;51.980;6.722;2023-02-28T10:46:49;12.20;93.50
64796;DHT22;51229;51.980;6.722;2023-02-28T10:49:27;11.00;59.10
64796;DHT22;51229;51.980;6.722;2023-02-28T10:51:56;9.20;56.00
64796;DHT22;51229;51.980;6.722;2023-02-28T10:54:32;11.00;59.50
64796;DHT22;51229;51.980;6.722;2023-02-28T10:57:18;11.60;67.80
64796;DHT22;51229;51.980;6.722;2023-02-28T10:59:52;9.10;51.30
64796;DHT22;51229;51.980;6.722;2023-02-28T11:02:36;10.40;53.90
64796;DHT22;51229;51.980;6.722;2023-02-28T11:05:29;10.70;55.30
64796;DHT22;51229;51.980;6.722;2023-02-28T11:08:05;10.30;54.40
64796;DHT22;51229;51.980;6.722;2023-02-28T11:10:32;8.90;55.80
64796;DHT22;51229;51.980;6.722;2023-02-28T11:13:01;8.90;63.00
64796;DHT22;51229;51.980;6.722;2023-02-28T11:15:33;8.80;51.80
64796;DHT22;51229;51.980;6.722;2023-02-28T11:18:15;8.50;59.60
64796;DHT22;51229;51.980;6.722;2023-02-28T11:20:48;9.00;54.90
64796;DHT22;51229;51.980;6.722;2023-02-28T11:23:15;10.10;59.40
64796;DHT22;51229;51.980;6.722;2023-02-28T11:25:51;9.60;58.70
64796;DHT22;51229;51.980;6.722;2023-02-28T11:28:38;10.20;50.80
64796;DHT22;51229;51.980;6.722;2023-02-28T11:38:42;12.50;55.20
64796;DHT22;51229;51.980;6.722;2023-02-28T11:41:22;10.60;66.20
64796;DHT22;51229;51.980;6.722;2023-02-28T11:46:41;9.80;65.60
64796;DHT22;51229;51.980;6.722;2023-02-28T11:49:30;10.10;75.90
64796;DHT22;51229;51.980;6.722;2023-02-28T11:57:20;9.70;78.00
64796;DHT22;51229;51.980;6.722;2023-02-28T12:02:58;11.40;62.30
64796;DHT22;51229;51.980;6.722;2023-02-28T12:06:09;12.40;50.50
64796;DHT22;51229;51.980;6.722;2023-02-28T12:08:42;10.00;56.50
64796;DHT22;51229;51.980;6.722;2023-02-28T12:19:30;10.30;55.00
64796;DHT22;51229;51.980;6.722;2023-02-28T12:22:12;10.20;52.70
64796;DHT22;51229;51.980;6.722;2023-02-28T12:27:41;11.10;99.90
64796;DHT22;51229;51.980;6.722;2023-02-28T12:30:29;11.70;70.50
64796;DHT22;51229;51.980;6.722;2023-02-28T12:32:58;10.80;58.60
64796;DHT22;51229;51.980;6.722;2023-02-28T12:35:51;10.40;56.00
64796;DHT22;51229;51.980;6.722;2023-02-28T12:38:36;10.40;55.60
64796;DHT22;51229;51.980;6.722;2023-02-28T12:41:09;11.60;95.70
64796;DHT22;51229;51.980;6.722;2023-02-28T12:43:40;13.10;56.10
64796;DHT22;51229;51.980;6.722;2023-02-28T12:46:22;12.30;97.90
64796;DHT22;51229;51.980;6.722;2023-02-28T12:48:52;14.30;52.90
64796;DHT22;51229;51.980;6.722;2023-02-28T12:51:19;14.20;94.00
64796;DHT22;51229;51.980;6.722;2023-02-28T12:56:54;14.20;88.00
64796;DHT22;51229;51.980;6.722;2023-02-28T12:59:27;12.40;65.30
64796;DHT22;51229;51.980;6.722;2023-02-28T13:02:03;10.70;50.70
64796;DHT22;51229;51.980;6.722;2023-02-28T13:08:03;11.70;50.40
64796;DHT22;51229;51.980;6.722;2023-02-28T13:10:40;11.00;82.30
64796;DHT22;51229;51.980;6.722;2023-02-28T13:13:14;11.40;53.40
64796;DHT22;51229;51.980;6.722;2023-02-28T13:15:41;10.40;77.00
64796;DHT22;51229;51.980;6.722;2023-02-28T13:18:35;11.70;59.40
64796;DHT22;51229;51.980;6.722;2023-02-28T13:21:03;12.10;87.30
64796;DHT22;51229;51.980;6.722;2023-02-28T13:26:12;8.70;60.00
64796;DHT22;51229;51.980;6.722;2023-02-28T13:31:16;10.60;98.80
64796;DHT22;51229;51.980;6.722;2023-02-28T13:38:56;8.60;99.90
64796;DHT22;51229;51.980;6.722;2023-02-28T13:44:04;8.40;99.90
64796;DHT22;51229;51.980;6.722;2023-02-28T13:47:19;8.00;99.90
64796;DHT22;51229;51.980;6.722;2023-02-28T13:49:26;7.80;59.50
64796;DHT22;51229;51.980;6.722;2023-02-28T13:54:55;9.20;72.90
64796;DHT22;51229;51.980;6.722;2023-02-28T14:00:48;8.40;84.00
64796;DHT22;51229;51.980;6.722;2023-02-28T14:09:19;6.60;81.90
64796;DHT22;51229;51.980;6.722;2023-02-28T14:11:47;5.80;67.10
64796;DHT22;51229;51.980;6.722;2023-02-28T14:17:05;7.70;99.90
64796;DHT22;51229;51.980;6.722;2023-02-28T14:19:34;8.40;99.90
64796;DHT22;51229;51.980;6.722;2023-02-28T14:28:43;7.60;99.90
64796;DHT22;51229;51.980;6.722;2023-02-28T14:31:00;7.70;70.80
64796;DHT22;51229;51.980;6.722;2023-02-28T14:33:46;7.20;99.90
64796;DHT22;51229;51.980;6.722;2023-02-28T14:36:25;7.30;93.90
64796;DHT22;51229;51.980;6.722;2023-02-28T14:38:55;7.20;91.10
64796;DHT22;51229;51.980;6.722;2023-02-28T14:41:36;6.50;74.90
64796;DHT22;51229;51.980;6.722;2023-02-28T14:44:16;6.30;99.90
64796;DHT22;51229;51.980;6.722;2023-02-28T14:46:43;5.50;70.10
64796;DHT22;51229;51.980;6.722;2023-02-28T14:49:37;5.50;80.10
64796;DHT22;51229;51.980;6.722;2023-02-28T14:52:15;6.40;99.90
64796;DHT22;51229;51.980;6.722;2023-02-28T14:54:43;6.10;99.90
64796;DHT22;51229;51.980;6.722;2023-02-28T14:57:32;5.70;93.10
64796;DHT22;51229;51.980;6.722;2023-02-28T15:00:23;5.50;99.90
64796;DHT22;51229;51.980;6.722;2023-02-28T15:02:49;5.00;74.50
64796;DHT22;51229;51.980;6.722;2023-02-28T15:07:42;5.70;83.90
64796;DHT22;51229;51.980;6.722;2023-02-28T15:13:07;6.20;99.90
64796;DHT22;51229;51.980;6.722;2023-02-28T15:15:45;6.60;83.70
64796;DHT22;51229;51.980;6.722;2023-02-28T15:18:59;5.30;73.30
64796;DHT22;51229;51.980;6.722;2023-02-28T15:21:07;5.30;99.90
64796;DHT22;51229;51.980;6.722;2023-02-28T15:23:35;5.10;74.90
64796;DHT22;51229;51.980;6.722;2023-02-28T15:26:02;4.70;99.90
64796;DHT22;51229;51.980;6.722;2023-02-28T15:28:28;4.80;96.50
64796;DHT22;51229;51.980;6.722;2023-02-28T15:31:03;5.20;99.90
64796;DHT22;51229;51.980;6.722;2023-02-28T15:33:31;6.00;98.90
64796;DHT22;51229;51.980;6.722;2023-02-28T15:36:13;5.50;79.50
64796;DHT22;51229;51.980;6.722;2023-02-28T15:38:39;5.80;89.50
64796;DHT22;51229;51.980;6.722;2023-02-28T15:41:05;5.90;93.70
64796;DHT22;51229;51.980;6.722;2023-02-28T15:43:37;5.60;95.90
64796;DHT22;51229;51.980;6.722;2023-02-28T15:46:10;4.70;98.80
64796;DHT22;51229;51.980;6.722;2023-02-28T15:48:54;4.90;96.20
64796;DHT22;51229;51.980;6.722;2023-02-28T15:51:38;5.50;86.50
64796;DHT22;51229;51.980;6.722;2023-02-28T15:54:12;5.00;99.90
64796;DHT22;51229;51.980;6.722;2023-02-28T15:56:49;4.80;99.10
64796;DHT22;51229;51.980;6.722;2023-02-28T15:59:21;4.80;99.90
64796;DHT22;51229;51.980;6.722;2023-02-28T16:01:47;4.90;98.70
64796;DHT22;51229;51.980;6.722;2023-02-28T16:04:27;4.90;99.90
64796;DHT22;51229;51.980;6.722;2023-02-28T16:09:25;5.50;99.90
64796;DHT22;51229;51.980;6.722;2023-02-28T16:11:54;5.50;91.20
64796;DHT22;51229;51.980;6.722;2023-02-28T16:14:23;4.80;99.90
64796;DHT22;51229;51.980;6.722;2023-02-28T16:16:52;4.50;82.40
64796;DHT22;51229;51.980;6.722;2023-02-28T16:19:18;4.30;99.90
64796;DHT22;51229;51.980;6.722;2023-02-28T16:21:44;4.50;90.90
64796;DHT22;51229;51.980;6.722;2023-02-28T16:24:10;4.30;88.60
64796;DHT22;51229;51.980;6.722;2023-02-28T16:26:36;4.30;99.90
64796;DHT22;51229;51.980;6.722;2023-02-28T16:29:05;4.10;88.50
64796;DHT22;51229;51.980;6.722;2023-02-28T16:31:34;4.20;99.90
64796;DHT22;51229;51.980;6.722;2023-02-28T16:34:00;4.50;99.90
64796;DHT22;51229;51.980;6.722;2023-02-28T16:36:26;4.50;99.90
64796;DHT22;51229;51.980;6.722;2023-02-28T16:38:54;4.10;91.80
64796;DHT22;51229;51.980;6.722;2023-02-28T16:41:27;3.80;95.10
64796;DHT22;51229;51.980;6.722;2023-02-28T16:43:57;4.00;99.90
64796;DHT22;51229;51.980;6.722;2023-02-28T16:46:29;3.50;99.90
64796;DHT22;51229;51.980;6.722;2023-02-28T16:48:55;3.90;99.90
64796;DHT22;51229;51.980;6.722;2023-02-28T16:51:21;4.50;99.90
64796;DHT22;51229;51.980;6.722;2023-02-28T16:53:47;4.70;99.90
64796;DHT22;51229;51.980;6.722;2023-02-28T16:56:19;4.40;99.90
64796;DHT22;51229;51.980;6.722;2023-02-28T16:58:46;3.60;95.30
64796;DHT22;51229;51.980;6.722;2023-02-28T17:01:12;3.50;98.80
64796;DHT22;51229;51.980;6.722;2023-02-28T17:03:38;3.40;99.90
64796;DHT22;51229;51.980;6.722;2023-02-28T17:06:06;4.10;99.90
64796;DHT22;51229;51.980;6.722;2023-02-28T17:08:38;4.10;99.90
64796;DHT22;51229;51.980;6.722;2023-02-28T17:11:04;4.00;99.90
64796;DHT22;51229;51.980;6.722;2023-02-28T17:13:29;3.60;99.90
64796;DHT22;51229;51.980;6.722;2023-02-28T17:15:55;3.80;99.90
64796;DHT22;51229;51.980;6.722;2023-02-28T17:18:21;4.00;99.90
64796;DHT22;51229;51.980;6.722;2023-02-28T17:20:47;3.80;99.90
64796;DHT22;51229;51.980;6.722;2023-02-28T17:23:13;3.20;99.90
64796;DHT22;51229;51.980;6.722;2023-02-28T17:25:39;3.40;99.90
64796;DHT22;51229;51.980;6.722;2023-02-28T17:28:04;4.10;99.90
64796;DHT22;51229;51.980;6.722;2023-02-28T17:30:33;4.30;99.90
64796;DHT22;51229;51.980;6.722;2023-02-28T17:32:59;4.00;99.90
64796;DHT22;51229;51.980;6.722;2023-02-28T17:35:24;3.70;99.90
64796;DHT22;51229;51.980;6.722;2023-02-28T17:37:52;3.90;99.90
64796;DHT22;51229;51.980;6.722;2023-02-28T17:40:23;4.00;99.90
64796;DHT22;51229;51.980;6.722;2023-02-28T17:42:49;4.20;99.90
64796;DHT22;51229;51.980;6.722;2023-02-28T17:45:17;4.10;99.90
64796;DHT22;51229;51.980;6.722;2023-02-28T17:47:45;4.20;99.90
64796;DHT22;51229;51.980;6.722;2023-02-28T17:50:15;4.40;99.90
64796;DHT22;51229;51.980;6.722;2023-02-28T17:52:42;4.40;99.90
64796;DHT22;51229;51.980;6.722;2023-02-28T17:55:09;4.40;99.90